createdAt,value
2023-02-11T00:01:34.924Z,72.14
2023-02-11T00:04:05.783Z,72.28
2023-02-11T00:06:35.518Z,72.20
2023-02-11T00:09:05.440Z,70.90
2023-02-11T00:11:34.112Z,71.41
2023-02-11T00:14:05.408Z,71.88
2023-02-11T00:16:33.911Z,72.43
2023-02-11T00:19:06.329Z,72.12
2023-02-11T00:21:34.692Z,72.48
2023-02-11T00:24:03.210Z,71.47
2023-02-11T00:26:34.870Z,71.86
2023-02-11T00:29:04.423Z,72.47
2023-02-11T00:31:34.219Z,71.61
2023-02-11T00:34:02.752Z,71.32
2023-02-11T00:36:31.240Z,71.17
2023-02-11T00:39:00.704Z,71.00
2023-02-11T00:41:30.249Z,72.07
2023-02-11T00:44:02.519Z,72.65
2023-02-11T00:46:31.118Z,73.06
2023-02-11T00:48:59.667Z,73.07
2023-02-11T00:51:28.843Z,73.04
2023-02-11T00:53:58.000Z,72.74
2023-02-11T00:56:27.134Z,72.85
2023-02-11T00:58:57.984Z,72.91
2023-02-11T01:01:26.615Z,72.80
2023-02-11T01:03:54.807Z,72.25
2023-02-11T01:06:24.911Z,72.05
2023-02-11T01:08:53.570Z,72.42
2023-02-11T01:11:22.747Z,72.33
2023-02-11T01:13:51.639Z,72.67
2023-02-11T01:16:20.344Z,72.68
2023-02-11T01:18:49.606Z,71.78
2023-02-11T01:21:19.484Z,71.58
2023-02-11T01:23:48.202Z,72.53
2023-02-11T01:26:17.021Z,72.83
2023-02-11T01:28:45.514Z,72.97
2023-02-11T01:31:14.564Z,72.57
2023-02-11T01:33:43.011Z,72.85
2023-02-11T01:36:12.868Z,73.20
2023-02-11T01:38:41.863Z,73.04
2023-02-11T01:41:12.604Z,73.30
2023-02-11T01:43:46.149Z,74.17
2023-02-11T01:46:36.585Z,73.42
2023-02-11T01:49:13.246Z,72.35
2023-02-11T01:52:07.729Z,72.41
2023-02-11T01:55:02.587Z,72.75
2023-02-11T01:57:34.123Z,73.16
2023-02-11T02:00:21.755Z,73.31
2023-02-11T02:03:03.989Z,73.43
2023-02-11T02:05:42.386Z,73.59
2023-02-11T02:08:30.131Z,72.64
2023-02-11T02:11:01.122Z,72.23
2023-02-11T02:13:32.372Z,72.73
2023-02-11T02:16:09.302Z,73.05
2023-02-11T02:18:41.268Z,73.66
2023-02-11T02:22:01.457Z,73.96
2023-02-11T02:24:56.925Z,74.47
2023-02-11T02:28:02.850Z,74.39
2023-02-11T02:30:42.774Z,74.44
2023-02-11T02:33:52.776Z,74.33
2023-02-11T02:36:27.837Z,73.81
2023-02-11T02:39:04.256Z,73.81
2023-02-11T02:41:35.746Z,73.19
2023-02-11T02:44:04.896Z,72.77
2023-02-11T02:46:35.368Z,73.01
2023-02-11T02:49:07.804Z,72.97
2023-02-11T02:51:48.226Z,72.81
2023-02-11T02:54:48.306Z,72.81
2023-02-11T02:57:54.585Z,72.66
2023-02-11T03:00:42.463Z,72.77
2023-02-11T03:03:22.696Z,73.84
2023-02-11T03:05:58.773Z,74.00
2023-02-11T03:08:35.819Z,73.55
2023-02-11T03:11:06.595Z,73.45
2023-02-11T03:13:36.803Z,74.59
2023-02-11T03:16:12.336Z,73.13
2023-02-11T03:18:44.536Z,74.20
2023-02-11T03:21:15.419Z,74.16
2023-02-11T03:24:00.968Z,73.23
2023-02-11T03:26:34.760Z,75.00
2023-02-11T03:29:19.276Z,75.16
2023-02-11T03:31:56.381Z,74.19
2023-02-11T03:34:42.924Z,73.60
2023-02-11T03:37:45.504Z,74.32
2023-02-11T03:40:19.941Z,73.85
2023-02-11T03:43:01.149Z,73.70
2023-02-11T03:45:30.790Z,73.10
2023-02-11T03:48:12.159Z,73.36
2023-02-11T03:50:42.119Z,73.81
2023-02-11T03:53:11.322Z,73.64
2023-02-11T03:55:40.861Z,73.55
2023-02-11T03:58:09.538Z,74.14
2023-02-11T04:00:41.207Z,74.19
2023-02-11T04:03:11.655Z,74.02
2023-02-11T04:05:40.216Z,73.97
2023-02-11T04:08:09.413Z,74.16
2023-02-11T04:10:37.810Z,74.09
2023-02-11T04:13:06.079Z,73.72
2023-02-11T04:15:34.509Z,73.51
2023-02-11T04:18:03.744Z,73.47
2023-02-11T04:20:31.986Z,72.93
2023-02-11T04:23:00.457Z,73.07
2023-02-11T04:25:29.401Z,73.30
2023-02-11T04:27:57.800Z,73.77
2023-02-11T04:30:26.016Z,74.08
2023-02-11T04:32:57.004Z,73.76
2023-02-11T04:35:25.210Z,73.12
2023-02-11T04:37:53.531Z,73.15
2023-02-11T04:40:21.925Z,73.18
2023-02-11T04:42:50.204Z,72.76
2023-02-11T04:45:18.537Z,72.63
2023-02-11T04:47:46.796Z,72.85
2023-02-11T04:50:15.250Z,73.03
2023-02-11T04:52:43.595Z,72.81
2023-02-11T04:55:13.120Z,73.03
2023-02-11T04:57:41.424Z,73.16
2023-02-11T05:00:10.360Z,73.21
2023-02-11T05:02:38.694Z,73.66
2023-02-11T05:05:07.163Z,73.88
2023-02-11T05:07:35.654Z,73.91
2023-02-11T05:10:05.175Z,73.58
2023-02-11T05:12:33.437Z,73.77
2023-02-11T05:15:01.685Z,73.62
2023-02-11T05:17:30.277Z,73.57
2023-02-11T05:19:58.526Z,73.07
2023-02-11T05:22:26.752Z,73.32
2023-02-11T05:24:55.084Z,74.25
2023-02-11T05:27:23.263Z,73.91
2023-02-11T05:29:51.461Z,73.00
2023-02-11T05:32:19.652Z,73.82
2023-02-11T05:34:47.929Z,73.65
2023-02-11T05:37:16.208Z,74.27
2023-02-11T05:39:44.665Z,74.44
2023-02-11T05:42:13.948Z,74.68
2023-02-11T05:44:42.438Z,75.30
2023-02-11T05:47:10.610Z,75.57
2023-02-11T05:49:38.889Z,75.08
2023-02-11T05:52:07.149Z,74.61
2023-02-11T05:54:36.376Z,75.06
2023-02-11T05:57:04.884Z,74.70
2023-02-11T05:59:33.151Z,74.71
2023-02-11T06:02:02.207Z,74.39
2023-02-11T06:04:30.548Z,74.96
2023-02-11T06:06:58.785Z,74.63
2023-02-11T06:09:27.359Z,74.68
2023-02-11T06:11:55.729Z,74.64
2023-02-11T06:14:24.015Z,74.46
2023-02-11T06:16:52.344Z,73.93
2023-02-11T06:19:20.572Z,74.81
2023-02-11T06:21:48.795Z,74.24
2023-02-11T06:24:24.682Z,74.88
2023-02-11T06:27:06.302Z,74.69
2023-02-11T06:29:34.683Z,74.51
2023-02-11T06:32:03.211Z,74.54
2023-02-11T06:34:31.874Z,74.31
2023-02-11T06:37:00.263Z,74.48
2023-02-11T06:39:28.533Z,74.47
2023-02-11T06:41:56.882Z,73.80
2023-02-11T06:44:25.246Z,73.76
2023-02-11T06:46:53.512Z,73.75
2023-02-11T06:49:22.319Z,73.76
2023-02-11T06:51:50.640Z,73.87
2023-02-11T06:54:18.960Z,74.16
2023-02-11T06:56:47.406Z,74.79
2023-02-11T06:59:17.397Z,75.10
2023-02-11T07:01:45.657Z,74.48
2023-02-11T07:04:17.694Z,74.12
2023-02-11T07:06:45.918Z,74.94
2023-02-11T07:09:14.088Z,75.95
2023-02-11T07:11:42.921Z,74.93
2023-02-11T07:14:11.280Z,75.62
2023-02-11T07:16:39.718Z,75.89
2023-02-11T07:19:08.223Z,76.17
2023-02-11T07:21:36.670Z,76.58
2023-02-11T07:24:11.090Z,75.68
2023-02-11T07:26:39.859Z,75.17
2023-02-11T07:29:08.181Z,75.29
2023-02-11T07:31:36.593Z,74.95
2023-02-11T07:34:04.890Z,75.03
2023-02-11T07:36:33.337Z,74.70
2023-02-11T07:39:01.794Z,75.15
2023-02-11T07:41:30.535Z,75.04
2023-02-11T07:43:58.937Z,75.08
2023-02-11T07:46:28.083Z,75.01
2023-02-11T07:48:57.025Z,74.89
2023-02-11T07:51:28.195Z,75.05
2023-02-11T07:53:59.041Z,74.87
2023-02-11T07:56:28.898Z,75.21
2023-02-11T07:59:01.108Z,74.95
2023-02-11T08:01:30.605Z,74.87
2023-02-11T08:04:00.635Z,74.66
2023-02-11T08:06:31.687Z,74.57
2023-02-11T08:09:05.918Z,74.88
2023-02-11T08:11:34.238Z,74.57
2023-02-11T08:14:02.888Z,74.39
2023-02-11T08:16:36.298Z,74.48
2023-02-11T08:19:13.925Z,74.22
2023-02-11T08:21:43.391Z,74.39
2023-02-11T08:24:12.678Z,74.45
2023-02-11T08:26:41.140Z,74.74
2023-02-11T08:29:14.053Z,74.72
2023-02-11T08:31:45.257Z,74.63
2023-02-11T08:34:14.554Z,74.80
2023-02-11T08:36:43.820Z,74.82
2023-02-11T08:39:21.230Z,74.61
2023-02-11T08:41:54.504Z,74.48
2023-02-11T08:44:24.342Z,74.60
2023-02-11T08:46:52.614Z,74.45
2023-02-11T08:49:21.278Z,74.29
2023-02-11T08:51:50.260Z,73.96
2023-02-11T08:54:19.122Z,73.04
2023-02-11T08:56:51.850Z,71.92
2023-02-11T08:59:20.242Z,71.99
2023-02-11T09:01:49.211Z,71.49
2023-02-11T09:04:17.562Z,71.96
2023-02-11T09:06:46.347Z,72.17
2023-02-11T09:09:16.553Z,71.93
2023-02-11T09:11:46.169Z,71.75
2023-02-11T09:14:20.605Z,71.66
2023-02-11T09:16:50.638Z,71.24
2023-02-11T09:19:19.921Z,70.95
2023-02-11T09:21:48.203Z,70.83
2023-02-11T09:24:16.513Z,70.43
2023-02-11T09:26:44.858Z,70.92
2023-02-11T09:29:13.255Z,70.69
2023-02-11T09:31:41.745Z,70.55
2023-02-11T09:34:11.944Z,70.42
2023-02-11T09:36:41.628Z,70.42
2023-02-11T09:39:14.769Z,70.85
2023-02-11T09:42:14.239Z,70.18
2023-02-11T09:44:46.087Z,69.81
2023-02-11T09:47:39.937Z,69.72
2023-02-11T09:50:14.750Z,68.65
2023-02-11T09:52:52.882Z,69.50
2023-02-11T09:55:31.117Z,68.42
2023-02-11T09:57:59.372Z,68.69
2023-02-11T10:00:49.849Z,68.62
2023-02-11T10:03:23.739Z,68.63
2023-02-11T10:06:13.045Z,68.65
2023-02-11T10:08:53.844Z,67.77
2023-02-11T10:11:34.618Z,67.42
2023-02-11T10:14:21.618Z,67.42
2023-02-11T10:17:14.835Z,67.07
2023-02-11T10:20:11.368Z,66.06
2023-02-11T10:22:52.683Z,64.74
2023-02-11T10:25:45.447Z,62.91
2023-02-11T10:28:20.521Z,63.06
2023-02-11T10:31:02.298Z,62.55
2023-02-11T10:33:51.628Z,61.95
2023-02-11T10:36:24.392Z,60.90
2023-02-11T10:38:52.674Z,60.25
2023-02-11T10:41:26.371Z,60.32
2023-02-11T10:43:55.583Z,59.50
2023-02-11T10:46:31.678Z,60.45
2023-02-11T10:49:00.460Z,60.72
2023-02-11T10:51:33.712Z,60.38
2023-02-11T10:54:05.399Z,60.44
2023-02-11T10:56:36.725Z,59.59
2023-02-11T10:59:19.776Z,59.32
2023-02-11T11:02:06.137Z,59.28
2023-02-11T11:04:45.114Z,59.46
2023-02-11T11:07:30.218Z,59.20
2023-02-11T11:10:04.235Z,58.28
2023-02-11T11:12:35.297Z,58.54
2023-02-11T11:15:19.012Z,57.70
2023-02-11T11:17:49.434Z,58.09
2023-02-11T11:20:36.452Z,57.46
2023-02-11T11:23:17.630Z,57.05
2023-02-11T11:26:09.780Z,57.02
2023-02-11T11:28:46.985Z,56.24
2023-02-11T11:31:20.817Z,56.02
2023-02-11T11:33:53.003Z,55.63
2023-02-11T11:36:32.396Z,55.68
2023-02-11T11:39:16.805Z,55.30
2023-02-11T11:41:59.269Z,54.76
2023-02-11T11:44:33.848Z,55.24
2023-02-11T11:47:29.694Z,54.96
2023-02-11T11:50:18.521Z,55.01
2023-02-11T11:53:00.227Z,54.14
2023-02-11T11:55:39.335Z,54.86
2023-02-11T11:58:15.513Z,55.72
2023-02-11T12:00:56.483Z,54.06
2023-02-11T12:03:36.953Z,53.83
2023-02-11T12:06:21.151Z,54.77
2023-02-11T12:08:49.324Z,54.28
2023-02-11T12:11:49.964Z,53.59
2023-02-11T12:14:50.616Z,52.31
2023-02-11T12:17:42.222Z,52.16
2023-02-11T12:20:26.236Z,51.55
2023-02-11T12:23:03.685Z,52.06
2023-02-11T12:26:10.542Z,51.05
2023-02-11T12:29:05.659Z,49.90
2023-02-11T12:32:01.471Z,50.89
2023-02-11T12:34:50.195Z,51.25
2023-02-11T12:38:06.555Z,50.56
2023-02-11T12:40:55.005Z,51.78
2023-02-11T12:43:39.825Z,49.97
2023-02-11T12:46:32.592Z,49.74
2023-02-11T12:49:22.327Z,49.01
2023-02-11T12:52:12.867Z,48.66
2023-02-11T12:54:53.585Z,48.74
2023-02-11T12:57:26.624Z,48.46
2023-02-11T13:00:13.972Z,48.30
2023-02-11T13:02:56.257Z,48.27
2023-02-11T13:05:40.991Z,48.38
2023-02-11T13:08:30.799Z,47.90
2023-02-11T13:11:08.113Z,48.73
2023-02-11T13:13:46.694Z,47.87
2023-02-11T13:16:49.912Z,48.31
2023-02-11T13:19:27.554Z,47.46
2023-02-11T13:22:15.010Z,48.45
2023-02-11T13:25:21.267Z,48.17
2023-02-11T13:28:40.125Z,48.77
2023-02-11T13:31:13.743Z,49.36
2023-02-11T13:33:43.395Z,49.20
2023-02-11T13:36:57.328Z,49.22
2023-02-11T13:39:27.955Z,50.50
2023-02-11T13:42:04.235Z,49.71
2023-02-11T13:44:34.642Z,49.44
2023-02-11T13:47:07.407Z,49.96
2023-02-11T13:49:52.049Z,49.85
2023-02-11T13:52:37.558Z,49.24
2023-02-11T13:55:40.241Z,49.26
2023-02-11T13:58:14.535Z,49.83
2023-02-11T14:00:47.548Z,50.33
2023-02-11T14:03:46.028Z,50.37
2023-02-11T14:06:43.507Z,49.86
2023-02-11T14:09:17.398Z,50.32
2023-02-11T14:12:15.402Z,50.32
2023-02-11T14:15:23.410Z,50.18
2023-02-11T14:17:52.598Z,50.23
2023-02-11T14:20:43.410Z,50.50
2023-02-11T14:23:27.476Z,50.89
2023-02-11T14:26:08.213Z,51.18
2023-02-11T14:28:38.961Z,51.06
2023-02-11T14:31:22.151Z,51.12
2023-02-11T14:34:23.172Z,51.33
2023-02-11T14:37:23.370Z,51.41
2023-02-11T14:40:32.069Z,51.49
2023-02-11T14:43:18.211Z,51.97
2023-02-11T14:45:53.913Z,52.17
2023-02-11T14:48:38.673Z,52.35
2023-02-11T14:51:15.766Z,52.95
2023-02-11T14:54:06.597Z,53.11
2023-02-11T14:56:36.391Z,53.79
2023-02-11T14:59:18.154Z,53.96
2023-02-11T15:01:51.472Z,54.63
2023-02-11T15:04:36.158Z,54.56
2023-02-11T15:07:11.945Z,55.53
2023-02-11T15:09:54.067Z,56.05
2023-02-11T15:12:27.860Z,55.93
2023-02-11T15:14:58.707Z,56.49
2023-02-11T15:17:32.021Z,56.88
2023-02-11T15:20:02.991Z,57.12
2023-02-11T15:22:37.095Z,56.85
2023-02-11T15:25:19.174Z,57.69
2023-02-11T15:27:53.192Z,58.28
2023-02-11T15:30:21.428Z,58.32
2023-02-11T15:33:00.011Z,58.47
2023-02-11T15:35:35.265Z,58.74
2023-02-11T15:38:04.719Z,59.03
2023-02-11T15:40:36.331Z,59.27
2023-02-11T15:43:07.853Z,59.48
2023-02-11T15:45:56.880Z,59.71
2023-02-11T15:48:36.698Z,60.39
2023-02-11T15:51:28.715Z,60.33
2023-02-11T15:54:16.284Z,61.08
2023-02-11T15:56:48.654Z,60.56
2023-02-11T15:59:34.984Z,61.11
2023-02-11T16:02:10.253Z,61.28
2023-02-11T16:04:38.674Z,62.00
2023-02-11T16:07:06.956Z,62.36
2023-02-11T16:09:37.121Z,62.30
2023-02-11T16:12:27.167Z,63.15
2023-02-11T16:14:59.771Z,63.16
2023-02-11T16:17:29.841Z,64.55
2023-02-11T16:19:58.536Z,64.54
2023-02-11T16:22:35.563Z,64.15
2023-02-11T16:25:04.139Z,62.54
2023-02-11T16:27:41.715Z,61.48
2023-02-11T16:30:34.905Z,60.96
2023-02-11T16:33:05.508Z,60.15
2023-02-11T16:35:33.907Z,60.04
2023-02-11T16:38:02.313Z,59.99
2023-02-11T16:40:30.681Z,59.34
2023-02-11T16:42:59.363Z,59.32
2023-02-11T16:45:30.779Z,58.92
2023-02-11T16:48:00.725Z,59.25
2023-02-11T16:50:30.021Z,59.37
2023-02-11T16:52:59.625Z,59.30
2023-02-11T16:55:32.644Z,59.39
2023-02-11T16:58:01.098Z,59.38
2023-02-11T17:00:30.107Z,59.44
2023-02-11T17:02:58.447Z,59.36
2023-02-11T17:05:27.261Z,59.59
2023-02-11T17:07:55.442Z,59.75
2023-02-11T17:10:24.850Z,59.55
2023-02-11T17:12:53.583Z,60.53
2023-02-11T17:15:22.075Z,60.26
2023-02-11T17:17:52.878Z,60.81
2023-02-11T17:20:21.307Z,62.32
2023-02-11T17:22:50.129Z,62.32
2023-02-11T17:25:18.908Z,63.86
2023-02-11T17:27:47.273Z,63.95
2023-02-11T17:30:15.738Z,65.04
2023-02-11T17:32:44.489Z,65.53
2023-02-11T17:35:12.824Z,65.90
2023-02-11T17:37:41.258Z,66.38
2023-02-11T17:40:10.501Z,66.19
2023-02-11T17:42:38.997Z,67.91
2023-02-11T17:45:08.598Z,66.74
2023-02-11T17:47:36.939Z,67.00
2023-02-11T17:50:05.696Z,66.05
2023-02-11T17:52:34.154Z,66.86
2023-02-11T17:55:02.638Z,66.66
2023-02-11T17:57:33.049Z,66.48
2023-02-11T18:00:05.941Z,67.37
2023-02-11T18:02:40.970Z,67.25
2023-02-11T18:05:10.244Z,67.54
2023-02-11T18:07:38.701Z,67.37
2023-02-11T18:10:08.497Z,67.15
2023-02-11T18:12:37.017Z,68.84
2023-02-11T18:15:05.652Z,68.62
2023-02-11T18:17:33.830Z,68.59
2023-02-11T18:20:03.647Z,68.48
2023-02-11T18:22:38.628Z,68.57
2023-02-11T18:25:08.832Z,68.23
2023-02-11T18:27:37.385Z,68.20
2023-02-11T18:30:07.148Z,68.90
2023-02-11T18:32:35.499Z,68.75
2023-02-11T18:35:14.821Z,68.87
2023-02-11T18:37:43.402Z,68.62
2023-02-11T18:40:12.895Z,68.93
2023-02-11T18:42:41.745Z,68.40
2023-02-11T18:45:12.783Z,68.68
2023-02-11T18:47:41.546Z,69.03
2023-02-11T18:50:11.397Z,69.06
2023-02-11T18:52:47.106Z,69.43
2023-02-11T18:55:16.343Z,69.79
2023-02-11T18:57:44.356Z,69.22
2023-02-11T19:00:13.494Z,69.31
2023-02-11T19:02:42.560Z,69.68
2023-02-11T19:05:11.576Z,69.18
2023-02-11T19:07:42.496Z,70.53
2023-02-11T19:10:11.286Z,69.63
2023-02-11T19:12:39.618Z,69.50
2023-02-11T19:15:11.642Z,69.92
2023-02-11T19:17:40.616Z,69.95
2023-02-11T19:20:09.161Z,70.41
2023-02-11T19:22:37.409Z,70.79
2023-02-11T19:25:07.238Z,70.71
2023-02-11T19:27:35.772Z,70.72
2023-02-11T19:30:08.358Z,70.71
2023-02-11T19:32:36.689Z,70.72
2023-02-11T19:35:05.075Z,70.35
2023-02-11T19:37:33.472Z,69.83
2023-02-11T19:40:01.760Z,70.12
2023-02-11T19:42:30.252Z,70.18
2023-02-11T19:44:58.779Z,69.75
2023-02-11T19:47:27.998Z,69.46
2023-02-11T19:49:56.411Z,69.55
2023-02-11T19:52:27.512Z,69.29
2023-02-11T19:54:56.214Z,69.36
2023-02-11T19:57:24.530Z,69.20
2023-02-11T19:59:55.034Z,68.83
2023-02-11T20:02:25.911Z,68.40
2023-02-11T20:04:54.213Z,68.40
2023-02-11T20:07:22.396Z,68.10
2023-02-11T20:09:51.056Z,67.79
2023-02-11T20:12:19.305Z,67.76
2023-02-11T20:14:47.587Z,67.45
2023-02-11T20:17:15.764Z,67.23
2023-02-11T20:19:43.975Z,66.95
2023-02-11T20:22:12.378Z,66.64
2023-02-11T20:24:40.746Z,66.28
2023-02-11T20:27:12.449Z,66.25
2023-02-11T20:29:40.815Z,66.24
2023-02-11T20:32:11.537Z,66.14
2023-02-11T20:34:40.104Z,66.65
2023-02-11T20:37:11.190Z,67.02
2023-02-11T20:39:41.946Z,67.21
2023-02-11T20:42:15.029Z,67.14
2023-02-11T20:44:43.555Z,67.28
2023-02-11T20:47:12.873Z,67.84
2023-02-11T20:49:41.162Z,68.19
2023-02-11T20:52:09.751Z,68.03
2023-02-11T20:54:38.134Z,68.10
2023-02-11T20:57:07.330Z,67.81
2023-02-11T20:59:35.772Z,68.01
2023-02-11T21:02:06.832Z,68.03
2023-02-11T21:04:35.546Z,67.86
2023-02-11T21:07:03.792Z,68.27
2023-02-11T21:09:33.427Z,68.85
2023-02-11T21:12:02.982Z,68.86
2023-02-11T21:14:31.333Z,68.69
2023-02-11T21:16:59.979Z,69.06
2023-02-11T21:19:28.371Z,68.65
2023-02-11T21:22:00.673Z,68.65
2023-02-11T21:24:30.921Z,69.15
2023-02-11T21:26:59.658Z,69.79
2023-02-11T21:29:28.053Z,69.59
2023-02-11T21:31:56.552Z,69.81
2023-02-11T21:34:25.061Z,69.81
2023-02-11T21:36:53.344Z,69.58
2023-02-11T21:39:21.987Z,69.35
2023-02-11T21:41:51.696Z,69.36
2023-02-11T21:44:20.161Z,69.07
2023-02-11T21:46:48.572Z,68.87
2023-02-11T21:49:21.442Z,69.16
2023-02-11T21:51:54.964Z,68.83
2023-02-11T21:54:25.880Z,69.31
2023-02-11T21:56:54.701Z,69.20
2023-02-11T21:59:23.062Z,69.65
2023-02-11T22:01:51.401Z,69.70
2023-02-11T22:04:20.081Z,69.49
2023-02-11T22:06:48.288Z,69.64
2023-02-11T22:09:16.603Z,69.77
2023-02-11T22:11:44.962Z,69.51
2023-02-11T22:14:13.249Z,69.77
2023-02-11T22:16:41.590Z,69.51
2023-02-11T22:19:10.281Z,69.36
2023-02-11T22:21:38.835Z,69.71
2023-02-11T22:24:09.598Z,69.94
2023-02-11T22:26:40.233Z,69.71
2023-02-11T22:29:12.444Z,69.46
2023-02-11T22:31:43.666Z,70.17
2023-02-11T22:34:12.505Z,69.47
2023-02-11T22:36:42.406Z,69.98
2023-02-11T22:39:18.729Z,69.90
2023-02-11T22:41:47.898Z,69.78
2023-02-11T22:44:17.325Z,69.83
2023-02-11T22:46:46.290Z,70.17
2023-02-11T22:49:16.508Z,69.78
2023-02-11T22:51:44.880Z,69.87
2023-02-11T22:54:17.282Z,69.81
2023-02-11T22:56:49.628Z,70.19
2023-02-11T22:59:18.956Z,70.14
2023-02-11T23:01:47.341Z,71.16
2023-02-11T23:04:17.150Z,71.38
2023-02-11T23:06:47.684Z,70.31
2023-02-11T23:09:16.120Z,70.87
2023-02-11T23:11:48.601Z,70.91
2023-02-11T23:14:19.115Z,70.84
2023-02-11T23:16:50.710Z,70.49
2023-02-11T23:19:20.068Z,70.78
2023-02-11T23:21:51.574Z,70.58
2023-02-11T23:24:19.968Z,70.57
2023-02-11T23:26:48.405Z,70.71
2023-02-11T23:29:17.232Z,70.38
2023-02-11T23:31:46.614Z,70.28
2023-02-11T23:34:20.419Z,70.04
2023-02-11T23:36:52.637Z,69.94
2023-02-11T23:39:21.225Z,70.07
2023-02-11T23:41:52.175Z,69.62
2023-02-11T23:44:20.538Z,70.07
2023-02-11T23:46:48.960Z,69.70
2023-02-11T23:49:17.256Z,69.99
2023-02-11T23:51:45.667Z,70.55
2023-02-11T23:54:15.291Z,70.46
2023-02-11T23:56:43.613Z,70.27
2023-02-11T23:59:12.437Z,70.60
